Time;durP1;ratioP1;P1;durP2;ratioP2;P2;SDS_P1;SDS_P2;PMS_P1;PMS_P2;Temp;Humidity;BMP_temperature;BMP_pressure;BME280_temperature;BME280_humidity;BME280_pressure;Samples;Min_cycle;Max_cycle;Signal;HPM_P1;HPM_P2
2023/04/23 00:02:21;;;;;;;11.48;8.00;;;22.60;43.30;;;;;;4993423;28;20050;-58
2023/04/23 00:04:51;;;;;;;9.37;8.17;;;22.60;43.40;;;;;;4993175;28;20051;-58
2023/04/23 00:07:23;;;;;;;11.63;8.30;;;22.60;43.70;;;;;;4994505;28;20054;-58
2023/04/23 00:09:54;;;;;;;10.15;8.18;;;22.50;43.40;;;;;;4994283;28;20042;-58
2023/04/23 00:12:22;;;;;;;11.00;7.45;;;22.60;43.40;;;;;;4993272;28;20176;-58
2023/04/23 00:14:49;;;;;;;12.77;8.45;;;22.60;43.50;;;;;;4994537;28;20050;-58
2023/04/23 00:17:17;;;;;;;10.48;8.23;;;22.60;43.50;;;;;;4994595;28;20407;-58
2023/04/23 00:19:45;;;;;;;11.07;8.07;;;22.50;43.40;;;;;;4994469;28;20050;-58
2023/04/23 00:22:21;;;;;;;11.52;8.32;;;22.50;43.40;;;;;;4992596;28;20153;-58
2023/04/23 00:24:49;;;;;;;11.82;8.63;;;22.50;43.40;;;;;;4993977;28;20050;-58
2023/04/23 00:27:17;;;;;;;12.82;7.85;;;22.50;43.40;;;;;;4991897;28;20050;-58
2023/04/23 00:29:45;;;;;;;10.77;8.27;;;22.50;43.40;;;;;;4994350;28;20046;-58
2023/04/23 00:32:13;;;;;;;11.93;8.50;;;22.50;43.40;;;;;;4994373;28;20054;-58
2023/04/23 00:34:40;;;;;;;10.30;8.60;;;22.60;43.30;;;;;;4993449;28;20487;-57
2023/04/23 00:37:08;;;;;;;9.23;7.38;;;22.60;43.30;;;;;;4993391;28;20418;-58
2023/04/23 00:39:37;;;;;;;10.52;8.25;;;22.50;43.20;;;;;;4993325;28;20043;-58
2023/04/23 00:42:10;;;;;;;9.98;7.70;;;22.50;43.30;;;;;;4993012;28;20086;-58
2023/04/23 00:44:38;;;;;;;10.30;8.30;;;22.50;43.30;;;;;;4992752;28;20053;-58
2023/04/23 00:47:06;;;;;;;11.05;7.75;;;22.50;43.20;;;;;;4993508;28;20058;-59
2023/04/23 00:49:35;;;;;;;8.88;7.57;;;22.50;43.20;;;;;;4993842;28;20491;-57
2023/04/23 00:52:02;;;;;;;10.30;7.65;;;22.50;43.30;;;;;;4993538;28;20062;-57
2023/04/23 00:54:30;;;;;;;9.88;7.88;;;22.50;43.20;;;;;;4994032;28;20126;-57
2023/04/23 00:56:58;;;;;;;12.38;7.72;;;22.50;43.30;;;;;;4992596;28;20125;-57
2023/04/23 00:59:27;;;;;;;10.23;7.65;;;22.50;43.30;;;;;;4993748;28;20053;-57
2023/04/23 01:01:55;;;;;;;10.80;8.05;;;22.50;43.30;;;;;;4993073;28;20157;-57
2023/04/23 01:04:23;;;;;;;12.55;7.82;;;22.40;43.20;;;;;;4992620;28;20133;-57
2023/04/23 01:06:50;;;;;;;8.00;7.03;;;22.50;43.30;;;;;;4992991;28;20522;-57
2023/04/23 01:09:17;;;;;;;11.00;7.40;;;22.50;43.30;;;;;;4996848;28;20054;-57
2023/04/23 01:11:47;;;;;;;10.77;7.43;;;22.40;43.30;;;;;;4997801;28;20089;-57
2023/04/23 01:14:15;;;;;;;10.80;7.78;;;22.50;43.30;;;;;;4997087;28;20569;-57
2023/04/23 01:16:42;;;;;;;10.68;8.02;;;22.40;43.30;;;;;;4997007;28;20125;-57
2023/04/23 01:19:10;;;;;;;10.75;7.43;;;22.40;43.30;;;;;;4996756;28;20392;-57
2023/04/23 01:21:40;;;;;;;7.85;6.63;;;22.40;43.20;;;;;;4997342;28;20042;-57
2023/04/23 01:24:08;;;;;;;8.23;7.38;;;22.40;43.20;;;;;;4996865;28;20057;-57
2023/04/23 01:26:35;;;;;;;9.90;7.10;;;22.40;43.20;;;;;;4996742;28;20092;-57
2023/04/23 01:29:02;;;;;;;8.13;7.15;;;22.40;43.20;;;;;;4997361;28;20043;-58
2023/04/23 01:31:30;;;;;;;8.55;6.70;;;22.40;43.20;;;;;;4996753;28;20562;-58
2023/04/23 01:33:59;;;;;;;8.50;6.95;;;22.40;43.20;;;;;;4996694;28;20133;-57
2023/04/23 01:36:26;;;;;;;8.10;6.82;;;22.40;43.20;;;;;;4995961;28;20058;-57
2023/04/23 01:38:54;;;;;;;9.98;7.55;;;22.40;43.20;;;;;;4997409;28;20464;-57
2023/04/23 01:41:21;;;;;;;8.70;7.45;;;22.40;43.20;;;;;;4997083;28;20058;-58
2023/04/23 01:43:49;;;;;;;9.45;7.60;;;22.40;43.20;;;;;;4996158;28;20050;-57
2023/04/23 01:46:16;;;;;;;10.63;6.78;;;22.40;43.20;;;;;;4996676;28;20050;-58
2023/04/23 01:48:43;;;;;;;7.95;6.47;;;22.40;43.20;;;;;;4997507;28;20050;-57
2023/04/23 01:51:10;;;;;;;9.65;7.25;;;22.40;43.20;;;;;;4996102;28;20430;-57
2023/04/23 01:53:37;;;;;;;9.52;7.05;;;22.40;43.30;;;;;;4996351;28;20042;-58
2023/04/23 01:56:08;;;;;;;8.40;6.85;;;22.40;43.30;;;;;;4996159;28;20085;-57
2023/04/23 01:58:35;;;;;;;8.70;6.60;;;22.40;43.40;;;;;;4997342;28;20058;-57
2023/04/23 02:01:02;;;;;;;8.35;6.82;;;22.30;43.30;;;;;;4995957;28;20050;-58
2023/04/23 02:03:32;;;;;;;8.60;6.38;;;22.40;43.40;;;;;;4995876;28;20145;-58
2023/04/23 02:06:00;;;;;;;9.57;6.85;;;22.30;43.30;;;;;;4995646;28;20053;-58
2023/04/23 02:08:27;;;;;;;9.70;6.30;;;22.30;43.30;;;;;;4995729;28;20062;-57
2023/04/23 02:10:55;;;;;;;8.15;6.43;;;22.40;43.40;;;;;;4994865;28;20057;-58
2023/04/23 02:13:22;;;;;;;7.80;6.63;;;22.30;43.40;;;;;;4994900;28;20057;-59
2023/04/23 02:15:49;;;;;;;6.65;6.03;;;22.30;43.40;;;;;;4995567;28;20050;-58
2023/04/23 02:18:16;;;;;;;7.95;6.30;;;22.30;43.40;;;;;;4994707;28;20049;-58
2023/04/23 02:20:43;;;;;;;7.43;6.43;;;22.30;43.30;;;;;;4994690;28;20047;-58
2023/04/23 02:23:11;;;;;;;7.85;6.22;;;22.30;43.30;;;;;;4994679;28;20066;-58
2023/04/23 02:25:38;;;;;;;7.50;6.22;;;22.30;43.30;;;;;;4994799;28;20129;-58
2023/04/23 02:28:06;;;;;;;6.82;6.13;;;22.30;43.20;;;;;;4994922;28;20050;-57
2023/04/23 02:30:34;;;;;;;7.25;6.40;;;22.30;43.10;;;;;;4995637;28;20046;-58
2023/04/23 02:33:02;;;;;;;8.90;6.65;;;22.30;43.10;;;;;;4993376;28;20042;-58
2023/04/23 02:35:30;;;;;;;7.40;6.05;;;22.30;43.10;;;;;;4995001;28;20132;-57
2023/04/23 02:37:57;;;;;;;7.85;6.22;;;22.30;43.10;;;;;;4993795;28;20418;-57
2023/04/23 02:40:24;;;;;;;6.47;5.72;;;22.30;43.10;;;;;;4994873;28;20058;-59
2023/04/23 02:42:51;;;;;;;6.95;6.00;;;22.30;43.10;;;;;;4994936;28;20082;-58
2023/04/23 02:45:18;;;;;;;7.35;6.10;;;22.30;43.70;;;;;;4995030;28;20115;-57
2023/04/23 02:47:45;;;;;;;7.72;6.40;;;22.30;43.10;;;;;;4994789;28;20057;-58
2023/04/23 02:50:13;;;;;;;7.88;6.60;;;22.30;43.10;;;;;;4994812;28;20043;-57
2023/04/23 02:52:40;;;;;;;8.68;5.60;;;22.30;43.10;;;;;;4993981;28;20129;-57
2023/04/23 02:55:08;;;;;;;8.10;6.07;;;22.30;43.10;;;;;;4994614;28;20046;-57
2023/04/23 02:57:35;;;;;;;7.25;5.88;;;22.30;43.10;;;;;;4977528;28;20050;-57
2023/04/23 03:00:06;;;;;;;7.75;6.00;;;22.30;43.10;;;;;;4994972;28;20072;-57
2023/04/23 03:02:32;;;;;;;;;;;22.30;43.10;;;;;;4952055;28;1278734;-57
2023/04/23 03:05:00;;;;;;;6.22;5.43;;;22.30;43.10;;;;;;4995865;28;19929;-57
2023/04/23 03:07:27;;;;;;;8.18;6.35;;;22.30;43.10;;;;;;4995480;28;20522;-57
2023/04/23 03:09:54;;;;;;;6.07;5.47;;;22.30;43.10;;;;;;4995407;28;20073;-57
2023/04/23 03:12:21;;;;;;;8.07;5.63;;;22.20;43.00;;;;;;4995650;28;20058;-57
2023/04/23 03:14:48;;;;;;;7.95;5.05;;;22.20;43.00;;;;;;4995630;28;20069;-57
2023/04/23 03:17:15;;;;;;;6.70;5.38;;;22.30;43.70;;;;;;5003214;28;20491;-57
2023/04/23 03:19:42;;;;;;;6.75;5.25;;;22.30;43.10;;;;;;5015250;28;20133;-58
2023/04/23 03:22:10;;;;;;;5.82;5.03;;;22.30;43.10;;;;;;5014728;28;20050;-58
2023/04/23 03:24:37;;;;;;;6.93;5.28;;;22.30;43.10;;;;;;5014635;28;20475;-57
2023/04/23 03:27:04;;;;;;;8.05;5.07;;;22.20;43.00;;;;;;5014999;28;20107;-57
2023/04/23 03:29:31;;;;;;;6.13;5.38;;;22.20;43.00;;;;;;5014598;28;20052;-57
2023/04/23 03:31:58;;;;;;;7.35;5.18;;;22.20;43.00;;;;;;5014069;28;20064;-58
2023/04/23 03:34:25;;;;;;;6.18;4.78;;;22.20;43.00;;;;;;5014961;28;20100;-57
2023/04/23 03:36:52;;;;;;;5.65;5.10;;;22.20;43.00;;;;;;5000890;28;20060;-58
2023/04/23 03:39:20;;;;;;;5.88;4.85;;;22.20;43.00;;;;;;4994863;28;20137;-57
2023/04/23 03:41:47;;;;;;;5.95;4.95;;;22.20;43.00;;;;;;4994397;28;20081;-58
2023/04/23 03:44:14;;;;;;;6.20;5.00;;;22.20;43.00;;;;;;4994922;28;20570;-58
2023/04/23 03:46:41;;;;;;;7.43;5.32;;;22.20;43.00;;;;;;4994607;28;20495;-58
2023/04/23 03:49:08;;;;;;;5.65;5.03;;;22.20;43.10;;;;;;4994770;28;20053;-58
2023/04/23 03:51:35;;;;;;;6.25;5.03;;;22.20;43.10;;;;;;4994605;28;20054;-58
2023/04/23 03:54:02;;;;;;;6.28;5.53;;;22.20;43.10;;;;;;4995131;28;20078;-57
2023/04/23 03:56:29;;;;;;;6.10;5.47;;;22.20;43.10;;;;;;4994551;28;20050;-58
2023/04/23 03:58:56;;;;;;;6.35;5.15;;;22.20;43.20;;;;;;5006771;28;20049;-58
2023/04/23 04:01:23;;;;;;;5.93;5.30;;;22.20;43.10;;;;;;5014383;28;20437;-58
2023/04/23 04:03:50;;;;;;;5.47;4.82;;;22.20;43.10;;;;;;5013908;28;20045;-57
2023/04/23 04:06:18;;;;;;;5.55;4.82;;;22.20;43.10;;;;;;5013987;28;20140;-57
2023/04/23 04:08:45;;;;;;;7.38;5.00;;;22.20;43.10;;;;;;5014310;28;20423;-57
2023/04/23 04:11:12;;;;;;;5.45;4.68;;;22.20;43.70;;;;;;5014119;28;20052;-57
2023/04/23 04:13:39;;;;;;;5.32;4.82;;;22.20;43.10;;;;;;5014362;28;20052;-59
2023/04/23 04:16:07;;;;;;;5.85;4.50;;;22.30;43.10;;;;;;5013061;28;20056;-57
2023/04/23 04:18:34;;;;;;;5.18;4.68;;;22.20;43.00;;;;;;5012785;28;20085;-57
2023/04/23 04:21:01;;;;;;;4.90;4.22;;;22.30;43.00;;;;;;5013792;28;20473;-57
2023/04/23 04:23:28;;;;;;;5.43;4.57;;;22.30;43.00;;;;;;5013647;28;20128;-57
2023/04/23 04:25:56;;;;;;;6.00;4.80;;;22.30;42.80;;;;;;5013632;28;20136;-57
2023/04/23 04:28:24;;;;;;;5.20;4.35;;;22.30;42.80;;;;;;5012605;28;20049;-58
2023/04/23 04:30:56;;;;;;;6.28;5.00;;;22.30;42.70;;;;;;5013877;28;20056;-57
2023/04/23 04:33:24;;;;;;;6.13;4.60;;;22.30;42.70;;;;;;5013617;28;20056;-57
2023/04/23 04:35:53;;;;;;;5.38;4.57;;;22.30;42.60;;;;;;5013857;28;20406;-58
2023/04/23 04:38:21;;;;;;;5.53;4.88;;;22.30;42.60;;;;;;5013402;28;20050;-57
2023/04/23 04:40:48;;;;;;;5.78;4.70;;;22.30;42.60;;;;;;5013469;28;20421;-58
2023/04/23 04:43:16;;;;;;;4.97;4.32;;;22.40;42.60;;;;;;5013460;28;20050;-57
2023/04/23 04:45:43;;;;;;;5.25;4.75;;;22.40;42.60;;;;;;5013257;28;20049;-57
2023/04/23 04:48:10;;;;;;;5.78;4.55;;;22.40;42.50;;;;;;5013409;28;20089;-57
2023/04/23 04:50:37;;;;;;;5.13;4.53;;;22.40;42.50;;;;;;5013362;28;20052;-57
2023/04/23 04:53:05;;;;;;;5.53;3.92;;;22.40;42.40;;;;;;5013387;28;20049;-57
2023/04/23 04:55:32;;;;;;;4.93;4.05;;;22.40;42.40;;;;;;5012818;28;20561;-57
2023/04/23 04:57:59;;;;;;;4.82;4.32;;;22.40;42.30;;;;;;5013383;28;20067;-57
2023/04/23 05:00:28;;;;;;;4.22;3.83;;;22.50;42.30;;;;;;5006131;28;20129;-57
2023/04/23 05:02:57;;;;;;;4.95;4.45;;;22.50;42.30;;;;;;4993654;28;20050;-57
2023/04/23 05:05:26;;;;;;;4.80;3.83;;;22.50;42.20;;;;;;4993665;28;20553;-57
2023/04/23 05:07:53;;;;;;;4.82;4.13;;;22.50;42.10;;;;;;4993624;28;20108;-57
2023/04/23 05:10:20;;;;;;;4.43;4.03;;;22.60;42.10;;;;;;4993594;28;20057;-57
2023/04/23 05:12:48;;;;;;;5.03;3.85;;;22.60;42.10;;;;;;4993649;28;20050;-57
2023/04/23 05:15:15;;;;;;;5.90;3.97;;;22.60;42.10;;;;;;4993516;28;20049;-57
2023/04/23 05:17:42;;;;;;;4.63;3.90;;;22.60;42.00;;;;;;4992870;28;20125;-57
2023/04/23 05:20:10;;;;;;;4.57;3.72;;;22.70;42.00;;;;;;4993534;28;20101;-57
2023/04/23 05:22:40;;;;;;;4.47;4.05;;;22.70;41.90;;;;;;4993549;28;20100;-57
2023/04/23 05:25:08;;;;;;;4.95;4.25;;;22.70;41.90;;;;;;4998369;28;20046;-57
2023/04/23 05:27:35;;;;;;;4.53;4.00;;;22.70;41.80;;;;;;5013096;28;20060;-57
2023/04/23 05:30:04;;;;;;;4.13;3.72;;;22.70;41.80;;;;;;5013113;28;20050;-57
2023/04/23 05:32:32;;;;;;;4.90;4.17;;;22.70;41.70;;;;;;5011858;28;20061;-57
2023/04/23 05:35:01;;;;;;;5.15;3.72;;;22.70;41.70;;;;;;5012477;28;20081;-58
2023/04/23 05:37:29;;;;;;;4.63;4.03;;;22.70;41.70;;;;;;5013352;28;20061;-57
2023/04/23 05:39:57;;;;;;;3.97;3.58;;;22.80;41.70;;;;;;5013010;28;20482;-58
2023/04/23 05:42:24;;;;;;;3.67;3.33;;;22.80;41.70;;;;;;5013362;28;20413;-57
2023/04/23 05:44:51;;;;;;;5.82;3.80;;;22.80;41.70;;;;;;5013254;28;20052;-57
2023/04/23 05:47:18;;;;;;;5.20;4.63;;;22.80;41.70;;;;;;5012788;28;20554;-58
2023/04/23 05:49:45;;;;;;;3.67;2.97;;;22.80;41.60;;;;;;5012988;28;20046;-56
2023/04/23 05:52:13;;;;;;;4.35;3.97;;;22.90;41.60;;;;;;5013406;28;20081;-57
2023/04/23 05:54:41;;;;;;;5.03;3.55;;;22.90;41.60;;;;;;5015622;28;20410;-57
2023/04/23 05:57:09;;;;;;;3.75;3.45;;;22.90;41.50;;;;;;5016457;28;20092;-57
2023/04/23 05:59:36;;;;;;;4.57;4.00;;;22.90;41.50;;;;;;5016422;28;20053;-57
2023/04/23 06:02:04;;;;;;;3.92;3.55;;;22.90;41.50;;;;;;5016284;28;20418;-58
2023/04/23 06:04:31;;;;;;;3.70;3.33;;;22.90;41.40;;;;;;5015821;28;20042;-58
2023/04/23 06:06:58;;;;;;;3.78;3.47;;;23.00;41.40;;;;;;5015286;28;20057;-58
2023/04/23 06:09:25;;;;;;;4.45;3.90;;;23.00;41.30;;;;;;5016302;28;20050;-58
2023/04/23 06:11:53;;;;;;;3.92;3.53;;;23.10;41.30;;;;;;5016018;28;20503;-58
2023/04/23 06:14:20;;;;;;;4.30;3.80;;;23.10;41.80;;;;;;5016161;28;20046;-57
2023/04/23 06:16:47;;;;;;;4.35;3.95;;;23.10;41.20;;;;;;5016401;28;20104;-56
2023/04/23 06:19:14;;;;;;;4.07;3.67;;;23.10;41.10;;;;;;5016337;28;20050;-57
2023/04/23 06:21:41;;;;;;;5.00;3.58;;;23.10;41.30;;;;;;5016640;28;20072;-57
2023/04/23 06:24:08;;;;;;;4.43;3.45;;;23.20;41.10;;;;;;5016231;28;20409;-57
2023/04/23 06:26:35;;;;;;;4.30;3.90;;;23.20;41.00;;;;;;5015711;28;20054;-57
2023/04/23 06:29:02;;;;;;;3.47;3.17;;;23.30;41.00;;;;;;5015895;28;20132;-57
2023/04/23 06:31:29;;;;;;;4.65;3.85;;;23.30;40.90;;;;;;5014539;28;20053;-57
2023/04/23 06:33:57;;;;;;;4.00;3.60;;;23.30;40.80;;;;;;5015824;28;20046;-57
2023/04/23 06:36:24;;;;;;;4.10;3.40;;;23.40;41.30;;;;;;4999555;28;20487;-57
2023/04/23 06:38:51;;;;;;;4.07;3.67;;;23.40;40.60;;;;;;4996224;28;20058;-57
2023/04/23 06:41:19;;;;;;;3.60;3.30;;;23.50;40.60;;;;;;4995996;28;20050;-57
2023/04/23 06:43:47;;;;;;;3.70;3.38;;;23.50;40.60;;;;;;4996067;28;20594;-57
2023/04/23 06:46:14;;;;;;;4.68;4.00;;;23.50;40.50;;;;;;4996122;28;20042;-58
2023/04/23 06:48:41;;;;;;;4.60;3.70;;;23.50;40.50;;;;;;4995925;28;20057;-57
2023/04/23 06:51:08;;;;;;;4.13;3.38;;;23.50;40.50;;;;;;4996128;28;20075;-58
2023/04/23 06:53:36;;;;;;;4.25;3.65;;;23.50;40.40;;;;;;5006763;28;20509;-57
2023/04/23 06:56:03;;;;;;;4.47;3.83;;;23.60;40.50;;;;;;5015613;28;20129;-57
2023/04/23 06:58:31;;;;;;;4.70;4.15;;;23.60;40.40;;;;;;5015690;28;20042;-57
2023/04/23 07:01:06;;;;;;;4.10;3.70;;;23.60;40.40;;;;;;5010873;28;20054;-58
2023/04/23 07:03:35;;;;;;;4.05;3.28;;;23.60;40.40;;;;;;4996184;28;20130;-57
2023/04/23 07:06:02;;;;;;;4.22;3.83;;;23.60;40.40;;;;;;4994328;28;20056;-57
2023/04/23 07:08:30;;;;;;;4.15;3.72;;;23.60;40.40;;;;;;4995436;28;20546;-57
2023/04/23 07:10:57;;;;;;;3.50;3.20;;;23.70;40.50;;;;;;4995424;28;20130;-57
2023/04/23 07:13:25;;;;;;;4.40;4.00;;;23.70;40.50;;;;;;4995538;28;20085;-57
2023/04/23 07:15:52;;;;;;;3.97;3.30;;;23.70;40.40;;;;;;4995361;28;20137;-57
2023/04/23 07:18:19;;;;;;;3.42;3.13;;;23.70;40.50;;;;;;4995523;28;20412;-57
2023/04/23 07:20:46;;;;;;;3.35;3.05;;;23.70;40.40;;;;;;4995663;28;20050;-57
2023/04/23 07:23:13;;;;;;;5.25;3.60;;;23.70;40.40;;;;;;4994986;28;20054;-58
2023/04/23 07:25:41;;;;;;;4.13;3.55;;;23.80;40.50;;;;;;4994254;28;20141;-57
2023/04/23 07:28:08;;;;;;;3.50;2.90;;;23.80;40.40;;;;;;4995418;28;20088;-57
2023/04/23 07:30:35;;;;;;;3.38;3.10;;;23.80;40.30;;;;;;4995319;28;20050;-57
2023/04/23 07:33:02;;;;;;;5.60;2.88;;;23.90;40.20;;;;;;4995152;28;20056;-58
2023/04/23 07:35:29;;;;;;;3.22;2.80;;;23.80;40.00;;;;;;4995028;28;20556;-57
2023/04/23 07:37:57;;;;;;;3.00;2.80;;;23.90;40.20;;;;;;4995292;28;20129;-57
2023/04/23 07:40:24;;;;;;;3.40;3.10;;;23.90;40.20;;;;;;4995129;28;20137;-58
2023/04/23 07:42:51;;;;;;;3.42;3.13;;;23.90;40.20;;;;;;4995306;28;20042;-57
2023/04/23 07:45:19;;;;;;;3.30;3.00;;;24.00;40.20;;;;;;4995236;28;20050;-57
2023/04/23 07:47:48;;;;;;;3.30;3.00;;;24.00;40.00;;;;;;4994762;28;20104;-57
2023/04/23 07:50:18;;;;;;;3.25;2.95;;;24.00;39.80;;;;;;4994753;28;20487;-57
2023/04/23 07:52:46;;;;;;;3.40;3.17;;;24.10;39.70;;;;;;4994648;28;20097;-57
2023/04/23 07:55:13;;;;;;;3.90;3.20;;;24.10;39.60;;;;;;4994639;28;20047;-57
2023/04/23 07:57:40;;;;;;;3.85;3.22;;;24.10;39.50;;;;;;4994677;28;20053;-57
2023/04/23 08:00:08;;;;;;;3.42;3.13;;;24.10;39.50;;;;;;4994424;28;20051;-57
2023/04/23 08:02:35;;;;;;;3.80;3.38;;;24.20;39.40;;;;;;4994491;28;20058;-57
2023/04/23 08:05:02;;;;;;;3.38;3.08;;;24.20;39.40;;;;;;4994476;28;20465;-57
2023/04/23 08:07:30;;;;;;;3.40;3.10;;;24.20;39.40;;;;;;4994364;28;20046;-57
2023/04/23 08:10:01;;;;;;;2.80;2.60;;;24.20;39.30;;;;;;4994689;28;20121;-57
2023/04/23 08:12:29;;;;;;;4.15;3.00;;;24.20;39.30;;;;;;4994630;28;20050;-57
2023/04/23 08:14:57;;;;;;;3.25;2.92;;;24.30;39.40;;;;;;4994557;28;20097;-57
2023/04/23 08:17:24;;;;;;;3.60;3.30;;;24.30;39.30;;;;;;4994197;28;20050;-57
2023/04/23 08:19:51;;;;;;;3.22;2.95;;;24.30;39.30;;;;;;4994194;28;20078;-57
2023/04/23 08:22:18;;;;;;;3.72;3.35;;;24.30;39.30;;;;;;4994148;28;20089;-58
2023/04/23 08:24:46;;;;;;;3.30;2.85;;;24.30;39.30;;;;;;4994075;28;20129;-57
2023/04/23 08:27:14;;;;;;;4.13;3.13;;;24.30;39.20;;;;;;4994066;28;20129;-58
2023/04/23 08:29:41;;;;;;;3.13;2.83;;;24.30;39.20;;;;;;4993272;28;20129;-57
2023/04/23 08:32:08;;;;;;;3.55;3.25;;;24.30;39.20;;;;;;4994027;28;20082;-57
2023/04/23 08:34:36;;;;;;;3.83;2.85;;;24.40;39.20;;;;;;4993975;28;20503;-57
2023/04/23 08:37:03;;;;;;;3.40;3.10;;;24.30;39.10;;;;;;4994261;28;20137;-57
2023/04/23 08:39:32;;;;;;;3.47;3.03;;;24.40;39.20;;;;;;4994193;28;20053;-57
2023/04/23 08:42:09;;;;;;;3.53;3.10;;;24.40;39.10;;;;;;4993846;28;20139;-57
2023/04/23 08:44:37;;;;;;;3.42;3.13;;;24.40;39.10;;;;;;4993599;28;20054;-57
2023/04/23 08:47:06;;;;;;;2.80;2.60;;;24.50;39.20;;;;;;4993043;28;20046;-58
2023/04/23 08:49:34;;;;;;;2.95;2.75;;;24.40;39.70;;;;;;4993317;28;20105;-57
2023/04/23 08:52:14;;;;;;;3.42;2.40;;;24.50;39.10;;;;;;4994108;28;20137;-57
2023/04/23 08:54:46;;;;;;;3.35;2.72;;;24.50;39.10;;;;;;4994152;28;20129;-57
2023/04/23 08:57:16;;;;;;;3.30;3.00;;;24.50;39.10;;;;;;4993545;28;20048;-57
2023/04/23 08:59:44;;;;;;;2.90;2.70;;;24.50;39.10;;;;;;4992681;28;20097;-57
2023/04/23 09:02:16;;;;;;;3.58;3.28;;;24.50;39.10;;;;;;4992671;28;20046;-57
2023/04/23 09:04:47;;;;;;;2.75;2.47;;;24.60;39.10;;;;;;4992964;28;20416;-57
2023/04/23 09:07:17;;;;;;;3.03;2.83;;;24.50;39.00;;;;;;4993384;28;20050;-57
2023/04/23 09:09:45;;;;;;;3.20;2.70;;;24.60;39.10;;;;;;4993744;28;20054;-58
2023/04/23 09:12:12;;;;;;;3.30;3.03;;;24.60;39.10;;;;;;4993851;28;20054;-58
2023/04/23 09:14:39;;;;;;;3.58;2.83;;;24.60;39.10;;;;;;4992757;28;20090;-57
2023/04/23 09:17:07;;;;;;;2.90;2.70;;;24.60;39.10;;;;;;4993351;28;20054;-57
2023/04/23 09:19:37;;;;;;;2.90;2.70;;;24.60;39.00;;;;;;4994054;28;20081;-57
2023/04/23 09:22:06;;;;;;;2.92;2.63;;;24.60;39.00;;;;;;4993289;28;20054;-57
2023/04/23 09:24:34;;;;;;;3.33;3.03;;;24.70;39.10;;;;;;4993261;28;20141;-57
2023/04/23 09:27:02;;;;;;;2.63;2.42;;;24.60;39.00;;;;;;4992669;28;20403;-58
2023/04/23 09:29:30;;;;;;;3.15;2.85;;;24.60;39.00;;;;;;4995260;28;20050;-57
2023/04/23 09:32:07;;;;;;;2.63;2.42;;;24.70;39.10;;;;;;4997331;28;20502;-57
2023/04/23 09:34:38;;;;;;;4.13;2.70;;;24.70;39.10;;;;;;4996275;28;20137;-58
2023/04/23 09:37:09;;;;;;;3.40;3.10;;;24.70;39.10;;;;;;4997531;28;20046;-59
2023/04/23 09:39:38;;;;;;;2.90;2.70;;;24.70;39.10;;;;;;4997059;28;20061;-58
2023/04/23 09:42:08;;;;;;;3.53;3.17;;;24.70;39.10;;;;;;4995844;28;20380;-58
2023/04/23 09:44:35;;;;;;;2.65;2.45;;;24.70;39.10;;;;;;4995501;28;20050;-59
2023/04/23 09:47:10;;;;;;;3.65;2.33;;;24.70;39.10;;;;;;4997229;28;20434;-58
2023/04/23 09:49:48;;;;;;;2.95;2.70;;;24.70;39.10;;;;;;4996907;28;20116;-58
2023/04/23 09:52:17;;;;;;;3.15;2.70;;;24.80;39.10;;;;;;4997303;28;20058;-58
2023/04/23 09:54:45;;;;;;;2.67;2.50;;;24.80;39.10;;;;;;4997301;28;20050;-58
2023/04/23 09:57:13;;;;;;;2.90;2.60;;;24.80;39.10;;;;;;4997227;28;20057;-58
2023/04/23 09:59:40;;;;;;;3.10;2.80;;;24.80;39.10;;;;;;4997227;28;20072;-58
2023/04/23 10:02:17;;;;;;;3.78;2.92;;;24.80;39.10;;;;;;4996451;28;20053;-58
2023/04/23 10:04:51;;;;;;;3.35;2.63;;;24.80;39.10;;;;;;4996019;28;20144;-59
2023/04/23 10:07:26;;;;;;;3.03;2.83;;;24.80;39.10;;;;;;5005522;28;20050;-58
2023/04/23 10:09:54;;;;;;;2.90;2.70;;;24.90;39.10;;;;;;5015968;28;20134;-58
2023/04/23 10:12:21;;;;;;;4.55;2.67;;;24.80;39.10;;;;;;5014966;28;20054;-59
2023/04/23 10:14:53;;;;;;;2.50;2.30;;;24.90;39.10;;;;;;5016372;28;20045;-58
2023/04/23 10:17:20;;;;;;;3.10;2.80;;;24.80;39.10;;;;;;5015749;28;20053;-58
2023/04/23 10:19:49;;;;;;;2.40;2.20;;;24.90;39.10;;;;;;5015962;28;20083;-58
2023/04/23 10:22:20;;;;;;;2.38;2.17;;;24.90;39.10;;;;;;5015968;28;20045;-59
2023/04/23 10:24:54;;;;;;;2.55;2.35;;;24.90;39.20;;;;;;5015432;28;20089;-58
2023/04/23 10:27:26;;;;;;;2.60;2.40;;;24.90;39.10;;;;;;5015880;28;20108;-58
2023/04/23 10:30:13;;;;;;;2.80;2.50;;;24.90;39.10;;;;;;5015677;28;20054;-58
2023/04/23 10:32:42;;;;;;;3.50;2.78;;;24.90;39.10;;;;;;5015067;28;20120;-60
2023/04/23 10:35:10;;;;;;;2.92;2.63;;;24.90;39.20;;;;;;5015760;28;20132;-58
2023/04/23 10:37:37;;;;;;;2.90;2.47;;;24.90;39.10;;;;;;5015500;28;20112;-58
2023/04/23 10:40:10;;;;;;;3.10;2.75;;;24.90;39.20;;;;;;5013809;28;20046;-58
2023/04/23 10:42:39;;;;;;;2.20;2.00;;;24.90;39.10;;;;;;5015081;28;20149;-58
2023/04/23 10:45:12;;;;;;;2.92;2.72;;;24.90;39.10;;;;;;5015609;28;20498;-58
2023/04/23 10:47:51;;;;;;;2.67;2.50;;;24.90;39.10;;;;;;5015312;28;20045;-58
2023/04/23 10:50:27;;;;;;;2.40;2.30;;;24.90;39.10;;;;;;5015263;28;20046;-57
2023/04/23 10:52:56;;;;;;;2.47;2.28;;;24.90;39.10;;;;;;5015535;28;20076;-58
2023/04/23 10:55:26;;;;;;;2.35;2.15;;;24.90;39.10;;;;;;5014870;28;20137;-58
2023/04/23 10:58:03;;;;;;;2.08;1.98;;;25.00;39.20;;;;;;5015680;28;20053;-58
2023/04/23 11:00:44;;;;;;;2.33;2.17;;;24.90;39.20;;;;;;5015197;28;20081;-58
2023/04/23 11:03:38;;;;;;;2.38;2.28;;;25.00;39.20;;;;;;5015254;28;20050;-58
2023/04/23 11:06:38;;;;;;;2.47;2.28;;;25.00;39.20;;;;;;5015441;28;20411;-58
2023/04/23 11:09:45;;;;;;;2.33;2.13;;;25.00;39.20;;;;;;5015427;28;20495;-59
2023/04/23 11:12:32;;;;;;;2.17;1.95;;;25.00;39.20;;;;;;5014139;28;20052;-59
2023/04/23 11:15:12;;;;;;;2.28;2.17;;;25.00;39.20;;;;;;5014989;28;20064;-58
2023/04/23 11:18:00;;;;;;;2.17;2.08;;;25.00;39.20;;;;;;5014785;28;20046;-59
2023/04/23 11:20:27;;;;;;;2.35;2.15;;;25.00;39.20;;;;;;5014175;28;20054;-59
2023/04/23 11:22:55;;;;;;;2.30;2.10;;;25.00;39.20;;;;;;5014544;28;20164;-58
2023/04/23 11:25:27;;;;;;;2.40;2.20;;;25.00;39.10;;;;;;5013800;28;20478;-58
2023/04/23 11:27:57;;;;;;;2.05;1.95;;;25.00;39.10;;;;;;5014813;28;20519;-59
2023/04/23 11:30:25;;;;;;;;;;;25.10;39.20;;;;;;5015528;28;20379;-59
2023/04/23 11:32:54;;;;;;;1.95;1.85;;;25.10;39.20;;;;;;4996995;28;20025;-59
2023/04/23 11:35:27;;;;;;;2.70;2.50;;;25.10;39.20;;;;;;4994489;28;20050;-59
2023/04/23 11:37:55;;;;;;;2.58;2.38;;;25.10;39.20;;;;;;4995393;28;20046;-58
2023/04/23 11:40:23;;;;;;;2.10;2.00;;;25.10;39.20;;;;;;4995179;28;20085;-58
2023/04/23 11:42:53;;;;;;;3.45;2.20;;;25.10;39.20;;;;;;4994303;28;20061;-58
2023/04/23 11:45:24;;;;;;;2.35;2.15;;;25.10;39.20;;;;;;4994828;28;20054;-58
2023/04/23 11:47:57;;;;;;;2.40;2.20;;;25.10;39.20;;;;;;4994290;28;20133;-58
2023/04/23 11:50:31;;;;;;;2.40;2.20;;;25.10;39.10;;;;;;4995067;28;20082;-58
2023/04/23 11:53:07;;;;;;;2.20;2.00;;;25.10;39.20;;;;;;4993811;28;20487;-58
2023/04/23 11:55:35;;;;;;;2.53;1.80;;;25.10;39.20;;;;;;4994787;28;20510;-58
2023/04/23 11:58:02;;;;;;;2.30;2.10;;;25.10;39.20;;;;;;4994961;28;20053;-58
2023/04/23 12:00:29;;;;;;;2.33;2.13;;;25.10;39.20;;;;;;4993854;28;20050;-58
2023/04/23 12:02:58;;;;;;;2.40;2.20;;;25.10;39.20;;;;;;4994020;28;20501;-59
2023/04/23 12:05:35;;;;;;;2.63;2.43;;;25.10;39.20;;;;;;4994839;28;20051;-58
2023/04/23 12:08:17;;;;;;;2.17;1.98;;;25.10;39.10;;;;;;4994756;28;20054;-58
2023/04/23 12:10:46;;;;;;;2.53;2.33;;;25.10;39.10;;;;;;4993610;28;20129;-58
2023/04/23 12:13:15;;;;;;;2.45;1.85;;;25.10;39.10;;;;;;4994411;28;20053;-58
2023/04/23 12:15:52;;;;;;;1.98;1.88;;;25.10;39.10;;;;;;4994345;28;20129;-58
2023/04/23 12:18:19;;;;;;;2.10;2.00;;;25.20;39.20;;;;;;4992659;28;20050;-58
2023/04/23 12:20:46;;;;;;;1.85;1.75;;;25.20;39.20;;;;;;4994014;28;20718;-58
2023/04/23 12:23:13;;;;;;;2.45;2.17;;;25.20;39.10;;;;;;4994499;28;20133;-58
2023/04/23 12:25:41;;;;;;;2.22;2.10;;;25.20;39.20;;;;;;4994407;28;20133;-59
2023/04/23 12:28:08;;;;;;;2.28;2.08;;;25.20;39.20;;;;;;4993572;28;20057;-58
2023/04/23 12:30:43;;;;;;;2.20;2.10;;;25.20;39.20;;;;;;4993767;28;20060;-58
2023/04/23 12:33:11;;;;;;;2.05;1.90;;;25.20;39.70;;;;;;4993558;28;20042;-58
2023/04/23 12:35:44;;;;;;;1.95;1.85;;;25.20;39.20;;;;;;4993679;28;20133;-58
2023/04/23 12:38:23;;;;;;;1.98;1.80;;;25.20;39.20;;;;;;4993236;28;20050;-58
2023/04/23 12:40:52;;;;;;;2.30;2.10;;;25.20;39.20;;;;;;4993732;28;20057;-58
2023/04/23 12:43:19;;;;;;;2.50;2.30;;;25.20;39.80;;;;;;4994182;28;20046;-58
2023/04/23 12:45:46;;;;;;;1.88;1.77;;;25.20;39.20;;;;;;4993819;28;20415;-58
2023/04/23 12:48:14;;;;;;;2.75;2.13;;;25.20;39.20;;;;;;4993867;28;20050;-58
2023/04/23 12:50:41;;;;;;;1.70;1.60;;;25.20;39.20;;;;;;4993779;28;20046;-58
2023/04/23 12:53:08;;;;;;;1.92;1.83;;;25.20;39.20;;;;;;4994160;28;20050;-58
2023/04/23 12:55:37;;;;;;;2.10;2.00;;;25.20;39.20;;;;;;4992654;28;20046;-58